• Join FlightAware (Why Join?)
  • Login
  • US Flag 
02:35AM EDT


 

Airport Tracker/Info


-or-


 

Live Flight TrackerFlight Track Log ✈ SKP53 ✈ 09-May-2014 ✈ YNTN - YBCS / CNS

Flight Track Log - Related Links

Times and Time Zones

All times are in EDT time to prevent confusion due to time zone crossing. See the SKP53 flight status page for this flight to view local times or setup timezone preferences in your user account.

Time Position Orientation Groundspeed Altitude Reporting Facility
EDT Latitude Longitude Course Direction KTS MPH feet Rate Location/Type
11:28PM -17.6528 141.2685 81° East 19,000  Level Aus ATC (Calculated)
11:28PM -17.6639 141.2705 80° East 19,000 -60 Level Aus ATC (Calculated)
11:31PM -17.6408 141.4070 80° East  Level FlightAware Approximate
11:31PM -17.6303 141.4685 80° East 19,000  Level Aus ATC (Calculated)
11:32PM -17.6293 141.4746 80° East  Level FlightAware Approximate
11:33PM -17.6186 141.5373 80° East  Level FlightAware Approximate
11:34PM -17.6070 141.6049 80° East  Level FlightAware Approximate
11:35PM -17.5955 141.6725 80° East  Level FlightAware Approximate
11:36PM -17.5839 141.7401 80° East  Level FlightAware Approximate
11:37PM -17.5723 141.8077 80° East  Level FlightAware Approximate
11:38PM -17.5607 141.8753 80° East  Level FlightAware Approximate
11:39PM -17.5490 141.9428 80° East  Level FlightAware Approximate
11:40PM -17.5373 142.0104 80° East  Level FlightAware Approximate
11:41PM -17.5257 142.0780 80° East  Level FlightAware Approximate
11:42PM -17.5139 142.1455 80° East  Level FlightAware Approximate
11:43PM -17.5022 142.2130 80° East  Level FlightAware Approximate
11:44PM -17.4904 142.2806 80° East  Level FlightAware Approximate
11:45PM -17.4786 142.3481 80° East  Level FlightAware Approximate
11:46PM -17.4668 142.4156 80° East  Level FlightAware Approximate
11:46PM -17.5217 142.0844 80° East 210 242 18,600  Level Aus ATC (RADAR)
11:46PM -17.5142 142.1322 81° East 202 232 19,000 300 Climbing Aus ATC (RADAR)
11:47PM -17.5100 142.1669 83° East 208 239 19,100 120 Climbing Aus ATC (RADAR)
11:48PM -17.4987 142.2321 80° East 231 266 19,200 -60 Climbing Aus ATC (RADAR)
11:49PM -17.4798 142.3243 78° East 250 288 19,000 -120 Descending Aus ATC (RADAR)
11:50PM -17.4703 142.3657 76° East 252 290 19,000  Level Aus ATC (RADAR)
11:50PM -17.4665 142.3894 81° East 249 287 19,000  Level Aus ATC (RADAR)
11:51PM -17.4610 142.4314 82° East 250 288 19,000  Level Aus ATC (RADAR)
11:52PM -17.4534 142.4846 82° East 249 287 19,000  Level Aus ATC (RADAR)
11:52PM -17.4460 142.5262 79° East 250 288 19,000  Level Aus ATC (RADAR)
11:53PM -17.4344 142.5911 79° East 249 287 19,000  Level Aus ATC (RADAR)
11:55PM -17.4129 142.7091 79° East 249 287 19,100  Climbing Aus ATC (RADAR)
11:55PM -17.4084 142.7328 79° East 250 288 19,000 -120 Descending Aus ATC (RADAR)
11:56PM -17.4027 142.7746 82° East 250 288 19,000  Level Aus ATC (RADAR)
11:56PM -17.3955 142.8286 82° East 252 290 19,000  Level Aus ATC (RADAR)
11:57PM -17.3861 142.8757 78° East 250 288 19,000  Level Aus ATC (RADAR)
11:58PM -17.3728 142.9462 79° East 249 287 19,000  Level Aus ATC (RADAR)
11:59PM -17.3556 143.0411 79° East 250 288 19,000  Level Aus ATC (RADAR)
12:00AM -17.3524 143.0649 82° East 249 287 19,000  Level Aus ATC (RADAR)
12:00AM -17.3445 143.1126 80° East 250 288 19,000  Level Aus ATC (RADAR)
12:01AM -17.3341 143.1724 80° East 253 291 19,000  Level Aus ATC (RADAR)
12:02AM -17.3270 143.2139 80° East 250 288 19,000  Level Aus ATC (RADAR)
12:03AM -17.3163 143.2798 80° East 252 290 19,000  Level Aus ATC (RADAR)
12:03AM -17.3078 143.3213 78° East 252 290 19,000  Level Aus ATC (RADAR)
12:05AM -17.2850 143.4277 77° East 251 289 19,000  Level Aus ATC (RADAR)
12:05AM -17.2799 143.4517 78° East 253 291 19,000  Level Aus ATC (RADAR)
12:06AM -17.2726 143.4935 80° East 251 289 19,000  Level Aus ATC (RADAR)
12:07AM -17.2641 143.5597 82° East 251 289 19,000 60 Level Aus ATC (RADAR)
12:07AM -17.2588 143.6077 83° East 250 288 19,100  Climbing Aus ATC (RADAR)
12:08AM -17.2479 143.6674 79° East 252 290 19,000 -60 Descending Aus ATC (RADAR)
12:09AM -17.2240 143.7679 76° East 252 290 19,000  Level Aus ATC (RADAR)
12:10AM -17.2156 143.8092 78° East 249 287 19,000  Level Aus ATC (RADAR)
12:10AM -17.2116 143.8333 80° East 251 289 19,000  Level Aus ATC (RADAR)
12:11AM -17.2054 143.8755 81° East 252 290 19,000  Level Aus ATC (RADAR)
12:12AM -17.1950 143.9415 81° East 252 290 19,000  Level Aus ATC (RADAR)
12:12AM -17.1872 143.9830 79° East 250 288 19,000  Level Aus ATC (RADAR)
12:13AM -17.1761 144.0491 80° East 251 289 19,000  Level Aus ATC (RADAR)
12:15AM -17.1573 144.1506 79° East 252 290 19,000  Level Aus ATC (RADAR)
12:15AM -17.1522 144.1742 77° East 251 289 19,000  Level Aus ATC (RADAR)
12:16AM -17.1442 144.2161 79° East 252 290 19,000 60 Level Aus ATC (RADAR)
12:17AM -17.1313 144.2814 78° East 251 289 19,100  Climbing Aus ATC (RADAR)
12:17AM -17.1235 144.3233 79° East 252 290 19,000  Descending Aus ATC (RADAR)
12:18AM -17.1123 144.3893 80° East 251 289 19,100  Climbing Aus ATC (RADAR)
12:19AM -17.0955 144.4728 78° East 252 290 19,000 -60 Descending Aus ATC (RADAR)
12:20AM -17.0888 144.5084 79° East 251 289 19,000  Level Aus ATC (RADAR)
12:20AM -17.0830 144.5321 76° East 251 289 19,000  Level Aus ATC (RADAR)
12:21AM -17.0745 144.5736 78° East 250 288 19,000  Level Aus ATC (RADAR)
12:22AM -17.0620 144.6395 79° East 252 290 19,000  Level Aus ATC (RADAR)
12:22AM -17.0535 144.6871 79° East 251 289 19,000  Level Aus ATC (RADAR)
12:23AM -17.0405 144.7526 78° East 251 289 19,000  Level Aus ATC (RADAR)
12:24AM -17.0269 144.8305 80° East 253 291 19,000  Level Aus ATC (RADAR)
12:25AM -17.0203 144.8661 79° East 251 289 19,000  Level Aus ATC (RADAR)
12:25AM -17.0161 144.8898 80° East 249 287 19,000  Level Aus ATC (RADAR)
12:26AM -17.0087 144.9316 80° East 250 288 19,000  Level Aus ATC (RADAR)
12:27AM -16.9971 144.9971 80° East 249 287 19,000  Level Aus ATC (RADAR)
12:27AM -16.9879 145.0449 79° East 252 290 19,000 -480 Level Aus ATC (RADAR)
12:28AM -16.9669 145.1035 69° East 262 302 18,300 -1,020 Descending Aus ATC (RADAR)
12:29AM -16.9387 145.1429 53° Northeast 283 326 17,600 -1,620 Descending Aus ATC (RADAR)
12:30AM -16.8796 145.2334 56° Northeast 302 348 15,400 -1,860 Descending Aus ATC (RADAR)
12:30AM -16.8659 145.2598 62° Northeast 305 351 14,700 -2,100 Descending Aus ATC (RADAR)
12:31AM -16.8381 145.3107 60° Northeast 298 343 13,300 -2,100 Descending Aus ATC (RADAR)
12:32AM -16.8083 145.3594 57° Northeast 294 338 11,900 -1,980 Descending Aus ATC (RADAR)
12:32AM -16.7792 145.4057 57° Northeast 283 326 10,700 -2,040 Descending Aus ATC (RADAR)
12:33AM -16.7468 145.4611 59° Northeast 261 300 8,900 -2,160 Descending Aus ATC (RADAR)
12:33AM -16.7365 145.4768 55° Northeast 258 297 8,400 -1,440 Descending Aus ATC (RADAR)
12:35AM -16.6959 145.5398 56° Northeast 210 242 6,900 -1,320 Descending Aus ATC (RADAR)
12:35AM -16.6699 145.5603 37° Northeast 196 226 6,100 -1,260 Descending Aus ATC (RADAR)
12:35AM -16.6607 145.5706 47° Northeast 193 222 5,900 -660 Descending Aus ATC (RADAR)
12:36AM -16.6417 145.6017 57° Northeast 189 217 5,500 -900 Descending Aus ATC (RADAR)
12:37AM -16.6432 145.6484 92° East 185 213 4,500 -1,140 Descending Aus ATC (RADAR)
12:38AM -16.6724 145.6599 159° South 190 219 3,800 -900 Descending Aus ATC (RADAR)
12:38AM -16.7147 145.6750 161° South 175 201 3,200 -780 Descending Aus ATC (RADAR)
12:39AM -16.7369 145.6858 155° Southeast 177 204 2,700 -1,020 Descending Aus ATC (RADAR)
12:40AM -16.7835 145.7060 157° South 151 174 1,500 -1,020 Descending Aus ATC (RADAR)
12:40AM -16.7921 145.7097 157° South 143 165 1,300 -360 Descending Aus ATC (RADAR)
12:41AM -16.8111 145.7185 156° South 111 128 1,200 -420 Descending Aus ATC (RADAR)
12:42AM -16.8323 145.7284 156° South 92 106 700 -540 Descending Aus ATC (RADAR)
12:43AM -16.8480 145.7355 156° South 92 106 400 -480 Descending Aus ATC (RADAR)